sensor_id;sensor_type;location;lat;lon;timestamp;pressure;altitude;pressure_sealevel;temperature;humidity
13348;BME280;6743;49.934;9.138;2022-11-18T00:00:10;98537.66;;;9.29;100.00
13348;BME280;6743;49.934;9.138;2022-11-18T00:02:48;98533.19;;;9.30;100.00
13348;BME280;6743;49.934;9.138;2022-11-18T00:05:22;98530.53;;;9.30;100.00
13348;BME280;6743;49.934;9.138;2022-11-18T00:08:31;98536.84;;;9.29;100.00
13348;BME280;6743;49.934;9.138;2022-11-18T00:10:42;98538.69;;;9.28;100.00
13348;BME280;6743;49.934;9.138;2022-11-18T00:13:19;98539.50;;;9.29;100.00
13348;BME280;6743;49.934;9.138;2022-11-18T00:16:05;98544.16;;;9.27;100.00
13348;BME280;6743;49.934;9.138;2022-11-18T00:18:35;98537.25;;;9.26;100.00
13348;BME280;6743;49.934;9.138;2022-11-18T00:21:04;98541.75;;;9.25;100.00
13348;BME280;6743;49.934;9.138;2022-11-18T00:23:32;98538.28;;;9.25;100.00
13348;BME280;6743;49.934;9.138;2022-11-18T00:26:07;98540.91;;;9.25;100.00
13348;BME280;6743;49.934;9.138;2022-11-18T00:28:51;98546.59;;;9.22;100.00
13348;BME280;6743;49.934;9.138;2022-11-18T00:31:18;98518.88;;;9.11;100.00
13348;BME280;6743;49.934;9.138;2022-11-18T00:34:00;98541.72;;;9.19;100.00
13348;BME280;6743;49.934;9.138;2022-11-18T00:36:28;98537.44;;;9.18;100.00
13348;BME280;6743;49.934;9.138;2022-11-18T00:39:09;98532.53;;;9.15;100.00
13348;BME280;6743;49.934;9.138;2022-11-18T00:41:52;98536.19;;;9.14;100.00
13348;BME280;6743;49.934;9.138;2022-11-18T00:44:36;98541.47;;;9.14;100.00
13348;BME280;6743;49.934;9.138;2022-11-18T00:47:02;98540.88;;;9.12;100.00
13348;BME280;6743;49.934;9.138;2022-11-18T00:49:29;98539.41;;;9.09;100.00
13348;BME280;6743;49.934;9.138;2022-11-18T00:51:55;98541.25;;;9.08;100.00
13348;BME280;6743;49.934;9.138;2022-11-18T00:54:21;98535.13;;;9.08;100.00
13348;BME280;6743;49.934;9.138;2022-11-18T00:56:47;98540.44;;;9.08;100.00
13348;BME280;6743;49.934;9.138;2022-11-18T00:59:13;98536.16;;;9.07;100.00
13348;BME280;6743;49.934;9.138;2022-11-18T01:01:39;98532.69;;;9.06;100.00
13348;BME280;6743;49.934;9.138;2022-11-18T01:04:05;98521.25;;;8.99;100.00
13348;BME280;6743;49.934;9.138;2022-11-18T01:06:32;98533.72;;;9.05;100.00
13348;BME280;6743;49.934;9.138;2022-11-18T01:09:00;98537.97;;;9.06;100.00
13348;BME280;6743;49.934;9.138;2022-11-18T01:11:26;98524.13;;;8.98;100.00
13348;BME280;6743;49.934;9.138;2022-11-18T01:14:11;98535.75;;;9.03;100.00
13348;BME280;6743;49.934;9.138;2022-11-18T01:16:36;98542.03;;;9.02;100.00
13348;BME280;6743;49.934;9.138;2022-11-18T01:19:03;98547.50;;;9.01;100.00
13348;BME280;6743;49.934;9.138;2022-11-18T01:21:29;98537.94;;;9.00;100.00
13348;BME280;6743;49.934;9.138;2022-11-18T01:23:55;98544.25;;;8.99;100.00
13348;BME280;6743;49.934;9.138;2022-11-18T01:26:21;98539.75;;;8.93;100.00
13348;BME280;6743;49.934;9.138;2022-11-18T01:28:47;98560.94;;;8.99;100.00
13348;BME280;6743;49.934;9.138;2022-11-18T01:31:15;98556.69;;;8.98;100.00
13348;BME280;6743;49.934;9.138;2022-11-18T01:33:42;98563.56;;;8.99;100.00
13348;BME280;6743;49.934;9.138;2022-11-18T01:36:15;98560.94;;;8.99;100.00
13348;BME280;6743;49.934;9.138;2022-11-18T01:38:42;98561.97;;;8.98;100.00
13348;BME280;6743;49.934;9.138;2022-11-18T01:41:08;98560.34;;;8.97;100.00
13348;BME280;6743;49.934;9.138;2022-11-18T01:43:52;98561.34;;;8.96;100.00
13348;BME280;6743;49.934;9.138;2022-11-18T01:46:19;98570.28;;;8.95;100.00
13348;BME280;6743;49.934;9.138;2022-11-18T01:48:47;98550.06;;;8.81;100.00
13348;BME280;6743;49.934;9.138;2022-11-18T01:51:16;98572.28;;;8.93;100.00
13348;BME280;6743;49.934;9.138;2022-11-18T01:53:45;98576.75;;;8.93;100.00
13348;BME280;6743;49.934;9.138;2022-11-18T01:56:16;98572.50;;;8.92;100.00
13348;BME280;6743;49.934;9.138;2022-11-18T01:58:46;98573.53;;;8.91;100.00
13348;BME280;6743;49.934;9.138;2022-11-18T02:01:17;98576.16;;;8.91;100.00
13348;BME280;6743;49.934;9.138;2022-11-18T02:03:45;98572.69;;;8.90;100.00
13348;BME280;6743;49.934;9.138;2022-11-18T02:06:13;98584.91;;;8.91;100.00
13348;BME280;6743;49.934;9.138;2022-11-18T02:08:39;98580.44;;;8.92;100.00
13348;BME280;6743;49.934;9.138;2022-11-18T02:11:08;98589.16;;;8.92;100.00
13348;BME280;6743;49.934;9.138;2022-11-18T02:13:56;98583.87;;;8.92;100.00
13348;BME280;6743;49.934;9.138;2022-11-18T02:16:27;98577.59;;;8.93;100.00
13348;BME280;6743;49.934;9.138;2022-11-18T02:18:59;98574.13;;;8.93;100.00
13348;BME280;6743;49.934;9.138;2022-11-18T02:21:33;98575.75;;;8.94;100.00
13348;BME280;6743;49.934;9.138;2022-11-18T02:24:25;98574.13;;;8.93;100.00
13348;BME280;6743;49.934;9.138;2022-11-18T02:27:18;98583.28;;;8.90;100.00
13348;BME280;6743;49.934;9.138;2022-11-18T02:29:53;98582.28;;;8.91;100.00
13348;BME280;6743;49.934;9.138;2022-11-18T02:32:23;98591.22;;;8.90;100.00
13348;BME280;6743;49.934;9.138;2022-11-18T02:34:54;98585.94;;;8.90;100.00
13348;BME280;6743;49.934;9.138;2022-11-18T02:37:29;98595.50;;;8.91;100.00
13348;BME280;6743;49.934;9.138;2022-11-18T02:39:59;98588.38;;;8.92;100.00
13348;BME280;6743;49.934;9.138;2022-11-18T02:42:28;98585.72;;;8.92;100.00
13348;BME280;6743;49.934;9.138;2022-11-18T02:44:59;98579.59;;;8.85;100.00
13348;BME280;6743;49.934;9.138;2022-11-18T02:47:28;98585.50;;;8.93;100.00
13348;BME280;6743;49.934;9.138;2022-11-18T02:49:59;98590.81;;;8.93;100.00
13348;BME280;6743;49.934;9.138;2022-11-18T02:52:27;98588.97;;;8.94;100.00
13348;BME280;6743;49.934;9.138;2022-11-18T02:54:53;98587.97;;;8.95;100.00
13348;BME280;6743;49.934;9.138;2022-11-18T02:57:21;98594.09;;;8.95;100.00
13348;BME280;6743;49.934;9.138;2022-11-18T02:59:48;98589.78;;;8.94;100.00
13348;BME280;6743;49.934;9.138;2022-11-18T03:02:16;98589.78;;;8.94;100.00
13348;BME280;6743;49.934;9.138;2022-11-18T03:04:44;98595.09;;;8.94;100.00
13348;BME280;6743;49.934;9.138;2022-11-18T03:07:15;98592.44;;;8.94;100.00
13348;BME280;6743;49.934;9.138;2022-11-18T03:09:46;98592.44;;;8.94;100.00
13348;BME280;6743;49.934;9.138;2022-11-18T03:12:17;98593.25;;;8.95;100.00
13348;BME280;6743;49.934;9.138;2022-11-18T03:14:51;98570.41;;;8.81;100.00
13348;BME280;6743;49.934;9.138;2022-11-18T03:17:27;98597.53;;;8.96;100.00
13348;BME280;6743;49.934;9.138;2022-11-18T03:20:14;98601.00;;;8.96;100.00
13348;BME280;6743;49.934;9.138;2022-11-18T03:22:47;98597.34;;;8.97;100.00
13348;BME280;6743;49.934;9.138;2022-11-18T03:25:20;98600.81;;;8.98;100.00
13348;BME280;6743;49.934;9.138;2022-11-18T03:27:53;98600.00;;;8.97;100.00
13348;BME280;6743;49.934;9.138;2022-11-18T03:30:23;98599.78;;;8.99;100.00
13348;BME280;6743;49.934;9.138;2022-11-18T03:32:52;98594.50;;;8.99;100.00
13348;BME280;6743;49.934;9.138;2022-11-18T03:35:23;98597.13;;;8.99;100.00
13348;BME280;6743;49.934;9.138;2022-11-18T03:37:53;98604.88;;;9.00;100.00
13348;BME280;6743;49.934;9.138;2022-11-18T03:40:24;98607.53;;;9.00;100.00
13348;BME280;6743;49.934;9.138;2022-11-18T03:42:53;98599.59;;;9.00;100.00
13348;BME280;6743;49.934;9.138;2022-11-18T03:45:26;98606.09;;;8.98;100.00
13348;BME280;6743;49.934;9.138;2022-11-18T03:47:59;98619.13;;;8.99;100.00
13348;BME280;6743;49.934;9.138;2022-11-18T03:50:31;98621.75;;;8.99;100.00
13348;BME280;6743;49.934;9.138;2022-11-18T03:53:00;98631.34;;;9.00;100.00
13348;BME280;6743;49.934;9.138;2022-11-18T03:55:29;98610.91;;;8.88;100.00
13348;BME280;6743;49.934;9.138;2022-11-18T03:58:01;98632.34;;;8.99;100.00
13348;BME280;6743;49.934;9.138;2022-11-18T04:00:31;98629.69;;;8.99;100.00
13348;BME280;6743;49.934;9.138;2022-11-18T04:02:59;98636.63;;;9.00;100.00
13348;BME280;6743;49.934;9.138;2022-11-18T04:05:25;98635.81;;;9.00;100.00
13348;BME280;6743;49.934;9.138;2022-11-18T04:07:55;98636.81;;;8.99;100.00
13348;BME280;6743;49.934;9.138;2022-11-18T04:10:25;98642.09;;;8.99;100.00
13348;BME280;6743;49.934;9.138;2022-11-18T04:12:57;98638.44;;;9.00;100.00
13348;BME280;6743;49.934;9.138;2022-11-18T04:15:26;98639.44;;;8.99;100.00
13348;BME280;6743;49.934;9.138;2022-11-18T04:17:54;98642.09;;;8.99;100.00
13348;BME280;6743;49.934;9.138;2022-11-18T04:20:21;98645.56;;;8.99;100.00
13348;BME280;6743;49.934;9.138;2022-11-18T04:22:47;98646.59;;;8.98;100.00
13348;BME280;6743;49.934;9.138;2022-11-18T04:25:14;98642.09;;;8.99;100.00
13348;BME280;6743;49.934;9.138;2022-11-18T04:27:40;98646.38;;;9.00;100.00
13348;BME280;6743;49.934;9.138;2022-11-18T04:30:07;98652.50;;;9.00;100.00
13348;BME280;6743;49.934;9.138;2022-11-18T04:32:33;98650.47;;;9.02;100.00
13348;BME280;6743;49.934;9.138;2022-11-18T04:34:59;98656.59;;;9.03;100.00
13348;BME280;6743;49.934;9.138;2022-11-18T04:37:26;98649.44;;;8.97;100.00
13348;BME280;6743;49.934;9.138;2022-11-18T04:39:52;98660.06;;;9.03;100.00
13348;BME280;6743;49.934;9.138;2022-11-18T04:42:18;98661.69;;;9.04;100.00
13348;BME280;6743;49.934;9.138;2022-11-18T04:44:44;98665.16;;;9.05;100.00
13348;BME280;6743;49.934;9.138;2022-11-18T04:47:10;98668.63;;;9.05;100.00
13348;BME280;6743;49.934;9.138;2022-11-18T04:49:36;98664.12;;;9.06;100.00
13348;BME280;6743;49.934;9.138;2022-11-18T04:52:02;98664.12;;;9.06;100.00
13348;BME280;6743;49.934;9.138;2022-11-18T04:54:29;98669.41;;;9.06;100.00
13348;BME280;6743;49.934;9.138;2022-11-18T04:56:56;98672.06;;;9.06;100.00
13348;BME280;6743;49.934;9.138;2022-11-18T04:59:23;98675.50;;;9.06;100.00
13348;BME280;6743;49.934;9.138;2022-11-18T05:01:50;98674.50;;;9.07;100.00
13348;BME280;6743;49.934;9.138;2022-11-18T05:04:19;98677.34;;;9.06;100.00
13348;BME280;6743;49.934;9.138;2022-11-18T05:06:45;98680.81;;;9.06;100.00
13348;BME280;6743;49.934;9.138;2022-11-18T05:09:11;98686.91;;;9.07;100.00
13348;BME280;6743;49.934;9.138;2022-11-18T05:11:38;98680.38;;;9.03;100.00
13348;BME280;6743;49.934;9.138;2022-11-18T05:14:24;98687.50;;;9.02;100.00
13348;BME280;6743;49.934;9.138;2022-11-18T05:16:50;98691.16;;;9.01;100.00
13348;BME280;6743;49.934;9.138;2022-11-18T05:19:16;98689.34;;;9.02;100.00
13348;BME280;6743;49.934;9.138;2022-11-18T05:21:42;98688.50;;;9.01;100.00
13348;BME280;6743;49.934;9.138;2022-11-18T05:24:08;98684.88;;;9.02;100.00
13348;BME280;6743;49.934;9.138;2022-11-18T05:26:34;98689.34;;;9.02;100.00
13348;BME280;6743;49.934;9.138;2022-11-18T05:29:01;98686.69;;;9.02;100.00
13348;BME280;6743;49.934;9.138;2022-11-18T05:31:27;98687.50;;;9.02;100.00
13348;BME280;6743;49.934;9.138;2022-11-18T05:33:53;98677.75;;;9.03;100.00
13348;BME280;6743;49.934;9.138;2022-11-18T05:36:20;98681.41;;;9.02;100.00
13348;BME280;6743;49.934;9.138;2022-11-18T05:38:46;98691.78;;;9.03;100.00
13348;BME280;6743;49.934;9.138;2022-11-18T05:41:12;98694.44;;;9.03;100.00
13348;BME280;6743;49.934;9.138;2022-11-18T05:43:59;98698.09;;;9.02;100.00
13348;BME280;6743;49.934;9.138;2022-11-18T05:46:26;98705.19;;;9.02;100.00
13348;BME280;6743;49.934;9.138;2022-11-18T05:48:52;98702.56;;;9.02;100.00
13348;BME280;6743;49.934;9.138;2022-11-18T05:51:19;98708.03;;;9.00;100.00
13348;BME280;6743;49.934;9.138;2022-11-18T05:53:46;98704.38;;;9.01;100.00
13348;BME280;6743;49.934;9.138;2022-11-18T05:56:18;98703.75;;;8.99;100.00
13348;BME280;6743;49.934;9.138;2022-11-18T05:58:45;98711.50;;;9.01;100.00
13348;BME280;6743;49.934;9.138;2022-11-18T06:01:11;98709.66;;;9.01;100.00
13348;BME280;6743;49.934;9.138;2022-11-18T06:03:40;98708.84;;;9.01;100.00
13348;BME280;6743;49.934;9.138;2022-11-18T06:06:08;98703.69;;;8.93;100.00
13348;BME280;6743;49.934;9.138;2022-11-18T06:08:38;98716.78;;;9.01;100.00
13348;BME280;6743;49.934;9.138;2022-11-18T06:11:07;98721.25;;;9.00;100.00
13348;BME280;6743;49.934;9.138;2022-11-18T06:13:38;98721.25;;;9.00;100.00
13348;BME280;6743;49.934;9.138;2022-11-18T06:16:06;98723.91;;;9.00;100.00
13348;BME280;6743;49.934;9.138;2022-11-18T06:18:33;98734.66;;;8.99;100.00
13348;BME280;6743;49.934;9.138;2022-11-18T06:21:03;98748.09;;;8.97;100.00
13348;BME280;6743;49.934;9.138;2022-11-18T06:23:34;98751.56;;;8.98;100.00
13348;BME280;6743;49.934;9.138;2022-11-18T06:26:00;98755.03;;;8.98;100.00
13348;BME280;6743;49.934;9.138;2022-11-18T06:28:28;98751.56;;;8.98;100.00
13348;BME280;6743;49.934;9.138;2022-11-18T06:30:54;98738.03;;;8.86;100.00
13348;BME280;6743;49.934;9.138;2022-11-18T06:33:20;98759.28;;;8.99;100.00
13348;BME280;6743;49.934;9.138;2022-11-18T06:35:46;98762.16;;;8.98;100.00
13348;BME280;6743;49.934;9.138;2022-11-18T06:38:13;98775.97;;;9.00;100.00
13348;BME280;6743;49.934;9.138;2022-11-18T06:40:39;98778.62;;;9.00;100.00
13348;BME280;6743;49.934;9.138;2022-11-18T06:43:10;98783.91;;;9.00;100.00
13348;BME280;6743;49.934;9.138;2022-11-18T06:45:57;98785.75;;;8.99;100.00
13348;BME280;6743;49.934;9.138;2022-11-18T06:48:45;98792.25;;;8.97;100.00
13348;BME280;6743;49.934;9.138;2022-11-18T06:51:11;98790.41;;;8.97;100.00
13348;BME280;6743;49.934;9.138;2022-11-18T06:53:37;98796.53;;;8.98;100.00
13348;BME280;6743;49.934;9.138;2022-11-18T06:56:04;98796.31;;;8.99;100.00
13348;BME280;6743;49.934;9.138;2022-11-18T06:58:30;98812.19;;;8.99;100.00
13348;BME280;6743;49.934;9.138;2022-11-18T07:00:56;98812.19;;;8.99;100.00
13348;BME280;6743;49.934;9.138;2022-11-18T07:03:22;98814.81;;;8.99;100.00
13348;BME280;6743;49.934;9.138;2022-11-18T07:05:48;98815.03;;;8.98;100.00
13348;BME280;6743;49.934;9.138;2022-11-18T07:08:14;98818.50;;;8.98;100.00
13348;BME280;6743;49.934;9.138;2022-11-18T07:10:41;98820.94;;;9.00;100.00
13348;BME280;6743;49.934;9.138;2022-11-18T07:13:07;98821.75;;;9.00;100.00
13348;BME280;6743;49.934;9.138;2022-11-18T07:15:36;98825.22;;;9.01;100.00
13348;BME280;6743;49.934;9.138;2022-11-18T07:18:02;98806.66;;;8.94;100.00
13348;BME280;6743;49.934;9.138;2022-11-18T07:20:28;98826.03;;;9.01;100.00
13348;BME280;6743;49.934;9.138;2022-11-18T07:22:54;98827.69;;;9.02;100.00
13348;BME280;6743;49.934;9.138;2022-11-18T07:25:20;98831.16;;;9.03;100.00
13348;BME280;6743;49.934;9.138;2022-11-18T07:27:46;98833.63;;;9.04;100.00
13348;BME280;6743;49.934;9.138;2022-11-18T07:30:12;98835.25;;;9.05;100.00
13348;BME280;6743;49.934;9.138;2022-11-18T07:32:38;98837.09;;;9.05;100.00
13348;BME280;6743;49.934;9.138;2022-11-18T07:35:05;98845.84;;;9.05;100.00
13348;BME280;6743;49.934;9.138;2022-11-18T07:37:33;98843.19;;;9.05;100.00
13348;BME280;6743;49.934;9.138;2022-11-18T07:39:59;98848.28;;;9.07;100.00
13348;BME280;6743;49.934;9.138;2022-11-18T07:42:25;98851.75;;;9.07;100.00
13348;BME280;6743;49.934;9.138;2022-11-18T07:44:52;98864.16;;;9.07;100.00
13348;BME280;6743;49.934;9.138;2022-11-18T07:47:18;98866.78;;;9.07;100.00
13348;BME280;6743;49.934;9.138;2022-11-18T07:49:44;98857.03;;;9.07;100.00
13348;BME280;6743;49.934;9.138;2022-11-18T07:52:10;98870.91;;;9.09;100.00
13348;BME280;6743;49.934;9.138;2022-11-18T07:54:36;98866.59;;;9.08;100.00
13348;BME280;6743;49.934;9.138;2022-11-18T07:57:02;98870.91;;;9.09;100.00
13348;BME280;6743;49.934;9.138;2022-11-18T07:59:28;98872.53;;;9.11;100.00
13348;BME280;6743;49.934;9.138;2022-11-18T08:01:54;98880.91;;;9.14;100.00
13348;BME280;6743;49.934;9.138;2022-11-18T08:04:21;98879.91;;;9.15;100.00
13348;BME280;6743;49.934;9.138;2022-11-18T08:06:48;98889.47;;;9.16;100.00
13348;BME280;6743;49.934;9.138;2022-11-18T08:09:14;98887.47;;;9.18;100.00
13348;BME280;6743;49.934;9.138;2022-11-18T08:11:40;98892.53;;;9.20;100.00
13348;BME280;6743;49.934;9.138;2022-11-18T08:14:06;98895.00;;;9.21;100.00
13348;BME280;6743;49.934;9.138;2022-11-18T08:16:32;98895.66;;;9.23;100.00
13348;BME280;6743;49.934;9.138;2022-11-18T08:18:59;98897.47;;;9.23;100.00
13348;BME280;6743;49.934;9.138;2022-11-18T08:21:25;98911.72;;;9.22;100.00
13348;BME280;6743;49.934;9.138;2022-11-18T08:23:52;98917.19;;;9.20;100.00
13348;BME280;6743;49.934;9.138;2022-11-18T08:26:19;98913.72;;;9.20;100.00
13348;BME280;6743;49.934;9.138;2022-11-18T08:28:45;98919.22;;;9.18;100.00
13348;BME280;6743;49.934;9.138;2022-11-18T08:31:13;98913.09;;;9.18;100.00
13348;BME280;6743;49.934;9.138;2022-11-18T08:33:40;98920.22;;;9.17;100.00
13348;BME280;6743;49.934;9.138;2022-11-18T08:36:08;98919.75;;;9.14;100.00
13348;BME280;6743;49.934;9.138;2022-11-18T08:38:35;98929.53;;;9.13;100.00
13348;BME280;6743;49.934;9.138;2022-11-18T08:41:01;98924.22;;;9.13;100.00
13348;BME280;6743;49.934;9.138;2022-11-18T08:43:27;98923.97;;;9.08;100.00
13348;BME280;6743;49.934;9.138;2022-11-18T08:45:53;98927.09;;;9.12;100.00
13348;BME280;6743;49.934;9.138;2022-11-18T08:48:19;98931.56;;;9.11;100.00
13348;BME280;6743;49.934;9.138;2022-11-18T08:50:45;98928.72;;;9.13;100.00
13348;BME280;6743;49.934;9.138;2022-11-18T08:53:14;98930.34;;;9.14;100.00
13348;BME280;6743;49.934;9.138;2022-11-18T08:55:40;98938.50;;;9.12;100.00
13348;BME280;6743;49.934;9.138;2022-11-18T08:58:06;98944.78;;;9.11;100.00
13348;BME280;6743;49.934;9.138;2022-11-18T09:00:32;98954.16;;;9.14;100.00
13348;BME280;6743;49.934;9.138;2022-11-18T09:02:58;98955.78;;;9.15;100.00
13348;BME280;6743;49.934;9.138;2022-11-18T09:05:24;98964.94;;;9.12;100.00
13348;BME280;6743;49.934;9.138;2022-11-18T09:07:49;98973.88;;;9.11;100.00
13348;BME280;6743;49.934;9.138;2022-11-18T09:10:16;98974.25;;;9.08;100.00
13348;BME280;6743;49.934;9.138;2022-11-18T09:12:44;98982.19;;;9.08;100.00
13348;BME280;6743;49.934;9.138;2022-11-18T09:15:10;98982.81;;;9.10;100.00
13348;BME280;6743;49.934;9.138;2022-11-18T09:17:37;98981.00;;;9.11;100.00
13348;BME280;6743;49.934;9.138;2022-11-18T09:20:03;98992.75;;;9.08;100.00
13348;BME280;6743;49.934;9.138;2022-11-18T09:22:29;99002.53;;;9.07;100.00
13348;BME280;6743;49.934;9.138;2022-11-18T09:24:55;99002.69;;;9.06;100.00
13348;BME280;6743;49.934;9.138;2022-11-18T09:27:22;99006.00;;;9.08;100.00
13348;BME280;6743;49.934;9.138;2022-11-18T09:29:48;99011.47;;;9.06;100.00
13348;BME280;6743;49.934;9.138;2022-11-18T09:32:14;99014.94;;;9.07;100.00
13348;BME280;6743;49.934;9.138;2022-11-18T09:34:40;99019.22;;;9.08;100.00
13348;BME280;6743;49.934;9.138;2022-11-18T09:37:06;99019.78;;;9.03;100.00
13348;BME280;6743;49.934;9.138;2022-11-18T09:39:33;99022.59;;;9.02;100.00
13348;BME280;6743;49.934;9.138;2022-11-18T09:42:10;99025.06;;;9.03;100.00
13348;BME280;6743;49.934;9.138;2022-11-18T09:45:00;99037.00;;;8.99;100.00
13348;BME280;6743;49.934;9.138;2022-11-18T09:47:29;99026.44;;;8.99;100.00
13348;BME280;6743;49.934;9.138;2022-11-18T09:49:57;99031.94;;;8.98;100.00
13348;BME280;6743;49.934;9.138;2022-11-18T09:52:27;99034.28;;;8.93;100.00
13348;BME280;6743;49.934;9.138;2022-11-18T09:54:53;99040.22;;;8.95;100.00
13348;BME280;6743;49.934;9.138;2022-11-18T09:57:23;99038.84;;;8.99;100.00
13348;BME280;6743;49.934;9.138;2022-11-18T09:59:52;99018.25;;;8.80;100.00
13348;BME280;6743;49.934;9.138;2022-11-18T10:02:27;99047.78;;;8.98;100.00
13348;BME280;6743;49.934;9.138;2022-11-18T10:04:54;99046.97;;;8.97;100.00
13348;BME280;6743;49.934;9.138;2022-11-18T10:07:26;99049.63;;;8.97;100.00
13348;BME280;6743;49.934;9.138;2022-11-18T10:09:57;99047.78;;;8.98;100.00
13348;BME280;6743;49.934;9.138;2022-11-18T10:12:33;99054.53;;;9.00;100.00
13348;BME280;6743;49.934;9.138;2022-11-18T10:15:18;99052.34;;;9.04;100.00
13348;BME280;6743;49.934;9.138;2022-11-18T10:17:52;99051.97;;;9.07;100.00
13348;BME280;6743;49.934;9.138;2022-11-18T10:20:27;99055.72;;;9.13;100.00
13348;BME280;6743;49.934;9.138;2022-11-18T10:22:58;99035.00;;;9.01;100.00
13348;BME280;6743;49.934;9.138;2022-11-18T10:25:27;99055.41;;;9.22;100.00
13348;BME280;6743;49.934;9.138;2022-11-18T10:27:54;99061.53;;;9.23;100.00
13348;BME280;6743;49.934;9.138;2022-11-18T10:30:23;99071.28;;;9.22;100.00
13348;BME280;6743;49.934;9.138;2022-11-18T10:32:57;99074.94;;;9.21;100.00
13348;BME280;6743;49.934;9.138;2022-11-18T10:35:29;99076.59;;;9.22;100.00
13348;BME280;6743;49.934;9.138;2022-11-18T10:38:03;99080.41;;;9.20;100.00
13348;BME280;6743;49.934;9.138;2022-11-18T10:40:31;99082.88;;;9.21;100.00
13348;BME280;6743;49.934;9.138;2022-11-18T10:42:58;99075.75;;;9.22;100.00
13348;BME280;6743;49.934;9.138;2022-11-18T10:45:27;99084.16;;;9.25;100.00
13348;BME280;6743;49.934;9.138;2022-11-18T10:48:07;99084.16;;;9.25;100.00
13348;BME280;6743;49.934;9.138;2022-11-18T10:50:35;99083.59;;;9.30;100.00
13348;BME280;6743;49.934;9.138;2022-11-18T10:53:02;99087.88;;;9.31;100.00
13348;BME280;6743;49.934;9.138;2022-11-18T10:55:29;99059.06;;;9.21;100.00
13348;BME280;6743;49.934;9.138;2022-11-18T10:57:58;99087.16;;;9.37;100.00
13348;BME280;6743;49.934;9.138;2022-11-18T11:00:41;99087.59;;;9.40;100.00
13348;BME280;6743;49.934;9.138;2022-11-18T11:03:25;99085.75;;;9.41;100.00
13348;BME280;6743;49.934;9.138;2022-11-18T11:06:27;99086.41;;;9.43;100.00
13348;BME280;6743;49.934;9.138;2022-11-18T11:08:56;99085.22;;;9.45;100.00
13348;BME280;6743;49.934;9.138;2022-11-18T11:11:25;99086.66;;;9.48;100.00
13348;BME280;6743;49.934;9.138;2022-11-18T11:14:13;99091.34;;;9.46;100.00
13348;BME280;6743;49.934;9.138;2022-11-18T11:16:48;99099.06;;;9.47;100.00
13348;BME280;6743;49.934;9.138;2022-11-18T11:19:20;99105.00;;;9.49;100.00
13348;BME280;6743;49.934;9.138;2022-11-18T11:21:48;99103.66;;;9.54;100.00
13348;BME280;6743;49.934;9.138;2022-11-18T11:24:18;99105.09;;;9.56;100.00
13348;BME280;6743;49.934;9.138;2022-11-18T11:26:52;99100.44;;;9.58;100.00
13348;BME280;6743;49.934;9.138;2022-11-18T11:29:50;99097.38;;;9.61;100.00
13348;BME280;6743;49.934;9.138;2022-11-18T11:32:33;99100.25;;;9.60;100.00
13348;BME280;6743;49.934;9.138;2022-11-18T11:35:11;99097.84;;;9.65;100.00
13348;BME280;6743;49.934;9.138;2022-11-18T11:37:47;99104.63;;;9.67;100.00
13348;BME280;6743;49.934;9.138;2022-11-18T11:40:25;99105.88;;;9.71;100.00
13348;BME280;6743;49.934;9.138;2022-11-18T11:43:06;99103.69;;;9.75;100.00
13348;BME280;6743;49.934;9.138;2022-11-18T11:45:44;99106.12;;;9.76;100.00
13348;BME280;6743;49.934;9.138;2022-11-18T11:48:25;99117.09;;;9.73;100.00
13348;BME280;6743;49.934;9.138;2022-11-18T11:50:58;99123.22;;;9.74;100.00
13348;BME280;6743;49.934;9.138;2022-11-18T11:53:45;99131.78;;;9.76;100.00
13348;BME280;6743;49.934;9.138;2022-11-18T11:56:20;99128.12;;;9.77;100.00
13348;BME280;6743;49.934;9.138;2022-11-18T12:01:53;99128.19;;;9.83;100.00
13348;BME280;6743;49.934;9.138;2022-11-18T12:04:35;99133.69;;;9.82;100.00
13348;BME280;6743;49.934;9.138;2022-11-18T12:07:05;99137.16;;;9.82;100.00
13348;BME280;6743;49.934;9.138;2022-11-18T12:09:42;99131.25;;;9.80;100.00
13348;BME280;6743;49.934;9.138;2022-11-18T12:12:20;99135.72;;;9.80;100.00
13348;BME280;6743;49.934;9.138;2022-11-18T12:15:06;99140.00;;;9.81;100.00
13348;BME280;6743;49.934;9.138;2022-11-18T12:17:41;99147.50;;;9.77;100.00
13348;BME280;6743;49.934;9.138;2022-11-18T12:20:36;99145.03;;;9.76;100.00
13348;BME280;6743;49.934;9.138;2022-11-18T12:23:29;99150.16;;;9.77;100.00
13348;BME280;6743;49.934;9.138;2022-11-18T12:26:02;99148.31;;;9.78;100.00
13348;BME280;6743;49.934;9.138;2022-11-18T12:28:31;99152.59;;;9.79;100.00
13348;BME280;6743;49.934;9.138;2022-11-18T12:31:32;99144.84;;;9.77;100.00
13348;BME280;6743;49.934;9.138;2022-11-18T12:34:15;99149.13;;;9.78;100.00
13348;BME280;6743;49.934;9.138;2022-11-18T12:36:43;99137.66;;;9.71;100.00
13348;BME280;6743;49.934;9.138;2022-11-18T12:42:41;99153.78;;;9.76;100.00
13348;BME280;6743;49.934;9.138;2022-11-18T12:45:57;99151.16;;;9.76;100.00
13348;BME280;6743;49.934;9.138;2022-11-18T12:48:38;99153.78;;;9.76;100.00
13348;BME280;6743;49.934;9.138;2022-11-18T12:51:37;99150.88;;;9.71;100.00
13348;BME280;6743;49.934;9.138;2022-11-18T12:54:27;99150.59;;;9.81;100.00
13348;BME280;6743;49.934;9.138;2022-11-18T12:56:54;99157.16;;;9.85;100.00
13348;BME280;6743;49.934;9.138;2022-11-18T12:59:27;99154.41;;;9.93;100.00
13348;BME280;6743;49.934;9.138;2022-11-18T13:02:21;99148.34;;;9.99;100.00
13348;BME280;6743;49.934;9.138;2022-11-18T13:05:08;99149.88;;;10.08;100.00
13348;BME280;6743;49.934;9.138;2022-11-18T13:07:42;99160.53;;;10.15;100.00
13348;BME280;6743;49.934;9.138;2022-11-18T13:10:29;99158.00;;;10.21;100.00
13348;BME280;6743;49.934;9.138;2022-11-18T13:12:56;99160.53;;;10.30;100.00
13348;BME280;6743;49.934;9.138;2022-11-18T13:15:23;99170.91;;;10.31;100.00
13348;BME280;6743;49.934;9.138;2022-11-18T13:18:12;99175.84;;;10.34;100.00
13348;BME280;6743;49.934;9.138;2022-11-18T13:20:40;99181.16;;;10.34;100.00
13348;BME280;6743;49.934;9.138;2022-11-18T13:23:24;99177.50;;;10.35;100.00
13348;BME280;6743;49.934;9.138;2022-11-18T13:26:15;99178.75;;;10.39;100.00
13348;BME280;6743;49.934;9.138;2022-11-18T13:28:49;99175.47;;;10.37;100.00
13348;BME280;6743;49.934;9.138;2022-11-18T13:31:21;99180.38;;;10.40;100.00
13348;BME280;6743;49.934;9.138;2022-11-18T13:33:52;99175.22;;;10.32;100.00
13348;BME280;6743;49.934;9.138;2022-11-18T13:36:20;99183.84;;;10.41;100.00